sensor_id;sensor_type;location;lat;lon;timestamp;temperature;humidity
14531;DHT22;7352;50.866;4.366;2023-02-28T00:01:23;2.90;99.90
14531;DHT22;7352;50.866;4.366;2023-02-28T00:03:50;2.90;99.90
14531;DHT22;7352;50.866;4.366;2023-02-28T00:06:17;3.00;99.90
14531;DHT22;7352;50.866;4.366;2023-02-28T00:08:45;2.90;99.90
14531;DHT22;7352;50.866;4.366;2023-02-28T00:11:15;2.90;99.90
14531;DHT22;7352;50.866;4.366;2023-02-28T00:13:46;2.90;99.90
14531;DHT22;7352;50.866;4.366;2023-02-28T00:16:16;2.90;99.90
14531;DHT22;7352;50.866;4.366;2023-02-28T00:18:46;2.90;99.90
14531;DHT22;7352;50.866;4.366;2023-02-28T00:21:14;3.00;99.90
14531;DHT22;7352;50.866;4.366;2023-02-28T00:23:43;3.10;99.90
14531;DHT22;7352;50.866;4.366;2023-02-28T00:26:10;3.00;99.90
14531;DHT22;7352;50.866;4.366;2023-02-28T00:28:38;3.10;99.90
14531;DHT22;7352;50.866;4.366;2023-02-28T00:31:06;3.00;99.90
14531;DHT22;7352;50.866;4.366;2023-02-28T00:33:34;2.80;99.90
14531;DHT22;7352;50.866;4.366;2023-02-28T00:36:07;2.70;99.90
14531;DHT22;7352;50.866;4.366;2023-02-28T00:38:35;2.50;99.90
14531;DHT22;7352;50.866;4.366;2023-02-28T00:41:02;2.60;99.90
14531;DHT22;7352;50.866;4.366;2023-02-28T00:43:31;2.50;99.90
14531;DHT22;7352;50.866;4.366;2023-02-28T00:45:59;2.60;99.90
14531;DHT22;7352;50.866;4.366;2023-02-28T00:48:32;2.60;99.90
14531;DHT22;7352;50.866;4.366;2023-02-28T00:50:59;2.60;99.90
14531;DHT22;7352;50.866;4.366;2023-02-28T00:53:26;2.70;99.90
14531;DHT22;7352;50.866;4.366;2023-02-28T00:55:54;2.70;99.90
14531;DHT22;7352;50.866;4.366;2023-02-28T00:58:22;2.60;99.90
14531;DHT22;7352;50.866;4.366;2023-02-28T01:00:51;2.60;99.90
14531;DHT22;7352;50.866;4.366;2023-02-28T01:03:20;2.50;99.90
14531;DHT22;7352;50.866;4.366;2023-02-28T01:05:49;2.40;99.90
14531;DHT22;7352;50.866;4.366;2023-02-28T01:08:16;2.50;99.90
14531;DHT22;7352;50.866;4.366;2023-02-28T01:10:45;2.50;99.90
14531;DHT22;7352;50.866;4.366;2023-02-28T01:13:12;2.60;99.90
14531;DHT22;7352;50.866;4.366;2023-02-28T01:15:42;2.70;99.90
14531;DHT22;7352;50.866;4.366;2023-02-28T01:18:10;2.70;99.90
14531;DHT22;7352;50.866;4.366;2023-02-28T01:20:37;2.70;99.90
14531;DHT22;7352;50.866;4.366;2023-02-28T01:23:28;2.70;99.90
14531;DHT22;7352;50.866;4.366;2023-02-28T01:26:13;2.70;99.90
14531;DHT22;7352;50.866;4.366;2023-02-28T01:28:43;2.60;99.90
14531;DHT22;7352;50.866;4.366;2023-02-28T01:31:22;2.60;99.90
14531;DHT22;7352;50.866;4.366;2023-02-28T01:34:14;2.50;99.90
14531;DHT22;7352;50.866;4.366;2023-02-28T01:36:41;2.60;99.90
14531;DHT22;7352;50.866;4.366;2023-02-28T01:39:36;2.50;99.90
14531;DHT22;7352;50.866;4.366;2023-02-28T01:42:10;2.60;99.90
14531;DHT22;7352;50.866;4.366;2023-02-28T01:45:00;2.50;99.90
14531;DHT22;7352;50.866;4.366;2023-02-28T01:47:31;2.50;99.90
14531;DHT22;7352;50.866;4.366;2023-02-28T01:50:01;2.20;99.90
14531;DHT22;7352;50.866;4.366;2023-02-28T01:52:30;2.10;99.90
14531;DHT22;7352;50.866;4.366;2023-02-28T01:55:02;2.20;99.90
14531;DHT22;7352;50.866;4.366;2023-02-28T01:57:35;2.20;99.90
14531;DHT22;7352;50.866;4.366;2023-02-28T02:00:07;2.20;99.90
14531;DHT22;7352;50.866;4.366;2023-02-28T02:02:48;2.30;99.90
14531;DHT22;7352;50.866;4.366;2023-02-28T02:05:18;2.30;99.90
14531;DHT22;7352;50.866;4.366;2023-02-28T02:07:49;2.30;99.90
14531;DHT22;7352;50.866;4.366;2023-02-28T02:10:20;2.20;99.90
14531;DHT22;7352;50.866;4.366;2023-02-28T02:13:09;2.20;99.90
14531;DHT22;7352;50.866;4.366;2023-02-28T02:15:43;2.30;99.90
14531;DHT22;7352;50.866;4.366;2023-02-28T02:18:21;2.30;99.90
14531;DHT22;7352;50.866;4.366;2023-02-28T02:21:11;2.30;99.90
14531;DHT22;7352;50.866;4.366;2023-02-28T02:29:52;2.20;99.90
14531;DHT22;7352;50.866;4.366;2023-02-28T02:35:28;2.00;99.90
14531;DHT22;7352;50.866;4.366;2023-02-28T02:38:01;2.10;99.90
14531;DHT22;7352;50.866;4.366;2023-02-28T02:40:35;2.10;99.90
14531;DHT22;7352;50.866;4.366;2023-02-28T02:43:08;2.10;99.90
14531;DHT22;7352;50.866;4.366;2023-02-28T02:45:46;2.10;99.90
14531;DHT22;7352;50.866;4.366;2023-02-28T02:48:18;2.10;99.90
14531;DHT22;7352;50.866;4.366;2023-02-28T02:50:50;2.10;99.90
14531;DHT22;7352;50.866;4.366;2023-02-28T02:53:21;2.10;99.90
14531;DHT22;7352;50.866;4.366;2023-02-28T02:55:51;2.00;99.90
14531;DHT22;7352;50.866;4.366;2023-02-28T02:58:23;1.80;99.90
14531;DHT22;7352;50.866;4.366;2023-02-28T03:00:53;1.90;99.90
14531;DHT22;7352;50.866;4.366;2023-02-28T03:03:21;1.90;99.90
14531;DHT22;7352;50.866;4.366;2023-02-28T03:05:57;1.90;99.90
14531;DHT22;7352;50.866;4.366;2023-02-28T03:08:25;1.90;99.90
14531;DHT22;7352;50.866;4.366;2023-02-28T03:10:56;1.80;99.90
14531;DHT22;7352;50.866;4.366;2023-02-28T03:13:42;1.80;99.90
14531;DHT22;7352;50.866;4.366;2023-02-28T03:16:35;1.80;99.90
14531;DHT22;7352;50.866;4.366;2023-02-28T03:19:18;1.70;99.90
14531;DHT22;7352;50.866;4.366;2023-02-28T03:21:58;1.80;99.90
14531;DHT22;7352;50.866;4.366;2023-02-28T03:24:33;1.80;99.90
14531;DHT22;7352;50.866;4.366;2023-02-28T03:27:06;1.60;99.90
14531;DHT22;7352;50.866;4.366;2023-02-28T03:29:37;1.70;99.90
14531;DHT22;7352;50.866;4.366;2023-02-28T03:32:11;1.90;99.90
14531;DHT22;7352;50.866;4.366;2023-02-28T03:34:48;2.00;99.90
14531;DHT22;7352;50.866;4.366;2023-02-28T03:37:20;1.80;99.90
14531;DHT22;7352;50.866;4.366;2023-02-28T03:39:53;1.70;99.90
14531;DHT22;7352;50.866;4.366;2023-02-28T03:42:23;1.70;99.90
14531;DHT22;7352;50.866;4.366;2023-02-28T03:44:55;1.80;99.90
14531;DHT22;7352;50.866;4.366;2023-02-28T03:47:28;1.70;99.90
14531;DHT22;7352;50.866;4.366;2023-02-28T03:49:59;1.80;99.90
14531;DHT22;7352;50.866;4.366;2023-02-28T03:52:32;1.50;99.90
14531;DHT22;7352;50.866;4.366;2023-02-28T03:55:04;1.70;99.90
14531;DHT22;7352;50.866;4.366;2023-02-28T03:57:36;1.80;99.90
14531;DHT22;7352;50.866;4.366;2023-02-28T04:00:08;1.60;99.90
14531;DHT22;7352;50.866;4.366;2023-02-28T04:02:37;1.50;99.90
14531;DHT22;7352;50.866;4.366;2023-02-28T04:05:06;1.40;99.90
14531;DHT22;7352;50.866;4.366;2023-02-28T04:07:36;1.40;99.90
14531;DHT22;7352;50.866;4.366;2023-02-28T04:10:04;1.50;99.90
14531;DHT22;7352;50.866;4.366;2023-02-28T04:12:31;1.50;99.90
14531;DHT22;7352;50.866;4.366;2023-02-28T04:14:59;1.40;99.90
14531;DHT22;7352;50.866;4.366;2023-02-28T04:17:26;1.50;99.90
14531;DHT22;7352;50.866;4.366;2023-02-28T04:19:53;1.40;99.90
14531;DHT22;7352;50.866;4.366;2023-02-28T04:22:24;1.40;99.90
14531;DHT22;7352;50.866;4.366;2023-02-28T04:24:53;1.50;99.90
14531;DHT22;7352;50.866;4.366;2023-02-28T04:27:21;1.40;99.90
14531;DHT22;7352;50.866;4.366;2023-02-28T04:29:48;1.60;99.90
14531;DHT22;7352;50.866;4.366;2023-02-28T04:32:15;1.50;99.90
14531;DHT22;7352;50.866;4.366;2023-02-28T04:34:42;1.50;99.90
14531;DHT22;7352;50.866;4.366;2023-02-28T04:37:10;1.60;99.90
14531;DHT22;7352;50.866;4.366;2023-02-28T04:39:38;1.60;99.90
14531;DHT22;7352;50.866;4.366;2023-02-28T04:42:06;1.70;99.90
14531;DHT22;7352;50.866;4.366;2023-02-28T04:44:34;1.60;99.90
14531;DHT22;7352;50.866;4.366;2023-02-28T04:47:01;1.60;99.90
14531;DHT22;7352;50.866;4.366;2023-02-28T04:49:28;1.50;99.90
14531;DHT22;7352;50.866;4.366;2023-02-28T04:51:55;1.50;99.90
14531;DHT22;7352;50.866;4.366;2023-02-28T04:54:22;1.80;99.90
14531;DHT22;7352;50.866;4.366;2023-02-28T04:56:50;1.80;99.90
14531;DHT22;7352;50.866;4.366;2023-02-28T04:59:18;1.80;99.90
14531;DHT22;7352;50.866;4.366;2023-02-28T05:01:46;1.70;99.90
14531;DHT22;7352;50.866;4.366;2023-02-28T05:04:14;1.70;99.90
14531;DHT22;7352;50.866;4.366;2023-02-28T05:06:45;1.80;99.90
14531;DHT22;7352;50.866;4.366;2023-02-28T05:09:12;1.70;99.90
14531;DHT22;7352;50.866;4.366;2023-02-28T05:11:40;1.90;99.90
14531;DHT22;7352;50.866;4.366;2023-02-28T05:14:11;2.00;99.90
14531;DHT22;7352;50.866;4.366;2023-02-28T05:16:40;2.00;99.90
14531;DHT22;7352;50.866;4.366;2023-02-28T05:19:07;2.20;99.90
14531;DHT22;7352;50.866;4.366;2023-02-28T05:21:35;2.10;99.90
14531;DHT22;7352;50.866;4.366;2023-02-28T05:24:05;2.00;99.90
14531;DHT22;7352;50.866;4.366;2023-02-28T05:26:34;2.10;99.90
14531;DHT22;7352;50.866;4.366;2023-02-28T05:29:01;2.40;99.90
14531;DHT22;7352;50.866;4.366;2023-02-28T05:31:28;2.50;99.90
14531;DHT22;7352;50.866;4.366;2023-02-28T05:33:57;2.20;99.90
14531;DHT22;7352;50.866;4.366;2023-02-28T05:36:24;2.20;99.90
14531;DHT22;7352;50.866;4.366;2023-02-28T05:38:51;2.40;99.90
14531;DHT22;7352;50.866;4.366;2023-02-28T05:41:19;2.50;99.90
14531;DHT22;7352;50.866;4.366;2023-02-28T05:43:47;2.40;99.90
14531;DHT22;7352;50.866;4.366;2023-02-28T05:46:15;2.50;99.90
14531;DHT22;7352;50.866;4.366;2023-02-28T05:48:42;2.50;99.90
14531;DHT22;7352;50.866;4.366;2023-02-28T05:51:14;2.50;99.90
14531;DHT22;7352;50.866;4.366;2023-02-28T05:53:41;2.50;99.90
14531;DHT22;7352;50.866;4.366;2023-02-28T05:56:08;2.40;99.90
14531;DHT22;7352;50.866;4.366;2023-02-28T05:58:35;2.40;99.90
14531;DHT22;7352;50.866;4.366;2023-02-28T06:01:21;2.40;99.90
14531;DHT22;7352;50.866;4.366;2023-02-28T06:03:48;2.40;99.90
14531;DHT22;7352;50.866;4.366;2023-02-28T06:06:17;2.40;99.90
14531;DHT22;7352;50.866;4.366;2023-02-28T06:08:44;2.50;99.90
14531;DHT22;7352;50.866;4.366;2023-02-28T06:11:12;2.50;99.90
14531;DHT22;7352;50.866;4.366;2023-02-28T06:13:39;2.60;99.90
14531;DHT22;7352;50.866;4.366;2023-02-28T06:16:07;2.70;99.90
14531;DHT22;7352;50.866;4.366;2023-02-28T06:18:34;2.60;99.90
14531;DHT22;7352;50.866;4.366;2023-02-28T06:21:02;2.60;99.90
14531;DHT22;7352;50.866;4.366;2023-02-28T06:23:30;2.50;99.90
14531;DHT22;7352;50.866;4.366;2023-02-28T06:25:57;2.50;99.90
14531;DHT22;7352;50.866;4.366;2023-02-28T06:28:25;2.60;99.90
14531;DHT22;7352;50.866;4.366;2023-02-28T06:30:52;2.70;99.90
14531;DHT22;7352;50.866;4.366;2023-02-28T06:33:19;2.70;99.90
14531;DHT22;7352;50.866;4.366;2023-02-28T06:35:47;2.60;99.90
14531;DHT22;7352;50.866;4.366;2023-02-28T06:38:14;2.70;99.90
14531;DHT22;7352;50.866;4.366;2023-02-28T06:40:42;2.80;99.90
14531;DHT22;7352;50.866;4.366;2023-02-28T06:43:09;2.70;99.90
14531;DHT22;7352;50.866;4.366;2023-02-28T06:45:42;2.70;99.90
14531;DHT22;7352;50.866;4.366;2023-02-28T06:48:09;2.80;99.90
14531;DHT22;7352;50.866;4.366;2023-02-28T06:50:36;2.70;99.90
14531;DHT22;7352;50.866;4.366;2023-02-28T06:53:04;2.60;99.90
14531;DHT22;7352;50.866;4.366;2023-02-28T06:55:32;2.70;99.90
14531;DHT22;7352;50.866;4.366;2023-02-28T06:58:00;2.70;99.90
14531;DHT22;7352;50.866;4.366;2023-02-28T07:00:27;2.90;99.90
14531;DHT22;7352;50.866;4.366;2023-02-28T07:02:55;2.80;99.90
14531;DHT22;7352;50.866;4.366;2023-02-28T07:05:22;3.00;99.90
14531;DHT22;7352;50.866;4.366;2023-02-28T07:07:49;3.10;99.90
14531;DHT22;7352;50.866;4.366;2023-02-28T07:10:18;3.10;99.90
14531;DHT22;7352;50.866;4.366;2023-02-28T07:12:45;3.20;99.90
14531;DHT22;7352;50.866;4.366;2023-02-28T07:15:14;3.20;99.90
14531;DHT22;7352;50.866;4.366;2023-02-28T07:17:41;3.20;99.90
14531;DHT22;7352;50.866;4.366;2023-02-28T07:20:09;3.10;99.90
14531;DHT22;7352;50.866;4.366;2023-02-28T07:22:36;3.20;99.90
14531;DHT22;7352;50.866;4.366;2023-02-28T07:25:05;3.30;99.90
14531;DHT22;7352;50.866;4.366;2023-02-28T07:27:33;3.10;99.90
14531;DHT22;7352;50.866;4.366;2023-02-28T07:30:00;3.10;99.90
14531;DHT22;7352;50.866;4.366;2023-02-28T07:32:33;3.20;99.90
14531;DHT22;7352;50.866;4.366;2023-02-28T07:35:03;3.50;99.90
14531;DHT22;7352;50.866;4.366;2023-02-28T07:37:32;3.80;99.90
14531;DHT22;7352;50.866;4.366;2023-02-28T07:40:03;3.70;99.90
14531;DHT22;7352;50.866;4.366;2023-02-28T07:42:34;3.80;99.90
14531;DHT22;7352;50.866;4.366;2023-02-28T07:45:02;3.70;99.90
14531;DHT22;7352;50.866;4.366;2023-02-28T07:47:29;3.80;99.90
14531;DHT22;7352;50.866;4.366;2023-02-28T07:49:59;3.80;99.90
14531;DHT22;7352;50.866;4.366;2023-02-28T07:52:27;3.70;99.90
14531;DHT22;7352;50.866;4.366;2023-02-28T07:55:01;3.70;99.90
14531;DHT22;7352;50.866;4.366;2023-02-28T07:57:28;3.70;99.90
14531;DHT22;7352;50.866;4.366;2023-02-28T07:59:55;3.80;99.90
14531;DHT22;7352;50.866;4.366;2023-02-28T08:02:26;3.80;99.90
14531;DHT22;7352;50.866;4.366;2023-02-28T08:04:53;3.70;99.90
14531;DHT22;7352;50.866;4.366;2023-02-28T08:07:22;3.70;99.90
14531;DHT22;7352;50.866;4.366;2023-02-28T08:09:49;3.80;99.90
14531;DHT22;7352;50.866;4.366;2023-02-28T08:12:16;3.90;99.90
14531;DHT22;7352;50.866;4.366;2023-02-28T08:14:46;4.00;99.90
14531;DHT22;7352;50.866;4.366;2023-02-28T08:17:14;3.90;99.90
14531;DHT22;7352;50.866;4.366;2023-02-28T08:19:44;4.00;99.90
14531;DHT22;7352;50.866;4.366;2023-02-28T08:22:12;4.10;99.90
14531;DHT22;7352;50.866;4.366;2023-02-28T08:24:41;4.00;99.90
14531;DHT22;7352;50.866;4.366;2023-02-28T08:27:09;4.20;99.90
14531;DHT22;7352;50.866;4.366;2023-02-28T08:29:37;4.30;98.70
14531;DHT22;7352;50.866;4.366;2023-02-28T08:32:05;4.40;97.90
14531;DHT22;7352;50.866;4.366;2023-02-28T08:34:32;4.50;96.80
14531;DHT22;7352;50.866;4.366;2023-02-28T08:36:59;4.50;95.80
14531;DHT22;7352;50.866;4.366;2023-02-28T08:39:26;4.60;95.50
14531;DHT22;7352;50.866;4.366;2023-02-28T08:41:54;4.60;95.50
14531;DHT22;7352;50.866;4.366;2023-02-28T08:44:21;4.60;94.50
14531;DHT22;7352;50.866;4.366;2023-02-28T08:46:48;4.50;93.90
14531;DHT22;7352;50.866;4.366;2023-02-28T08:49:15;4.50;93.30
14531;DHT22;7352;50.866;4.366;2023-02-28T08:51:42;4.40;93.30
14531;DHT22;7352;50.866;4.366;2023-02-28T08:54:09;4.50;93.70
14531;DHT22;7352;50.866;4.366;2023-02-28T08:56:38;4.20;93.40
14531;DHT22;7352;50.866;4.366;2023-02-28T08:59:08;4.20;93.30
14531;DHT22;7352;50.866;4.366;2023-02-28T09:01:36;4.30;92.70
14531;DHT22;7352;50.866;4.366;2023-02-28T09:04:03;4.20;93.10
14531;DHT22;7352;50.866;4.366;2023-02-28T09:06:32;4.20;93.30
14531;DHT22;7352;50.866;4.366;2023-02-28T09:09:01;4.20;93.10
14531;DHT22;7352;50.866;4.366;2023-02-28T09:11:31;4.10;92.80
14531;DHT22;7352;50.866;4.366;2023-02-28T09:13:58;4.20;93.10
14531;DHT22;7352;50.866;4.366;2023-02-28T09:16:27;4.10;93.60
14531;DHT22;7352;50.866;4.366;2023-02-28T09:18:54;4.20;93.20
14531;DHT22;7352;50.866;4.366;2023-02-28T09:21:21;4.20;92.60
14531;DHT22;7352;50.866;4.366;2023-02-28T09:23:49;4.30;92.20
14531;DHT22;7352;50.866;4.366;2023-02-28T09:26:20;4.40;92.20
14531;DHT22;7352;50.866;4.366;2023-02-28T09:28:49;4.30;92.20
14531;DHT22;7352;50.866;4.366;2023-02-28T09:31:17;4.50;91.90
14531;DHT22;7352;50.866;4.366;2023-02-28T09:33:49;4.50;91.30
14531;DHT22;7352;50.866;4.366;2023-02-28T09:36:17;4.50;91.30
14531;DHT22;7352;50.866;4.366;2023-02-28T09:38:44;4.40;91.30
14531;DHT22;7352;50.866;4.366;2023-02-28T09:41:14;4.40;90.50
14531;DHT22;7352;50.866;4.366;2023-02-28T09:43:44;4.40;89.50
14531;DHT22;7352;50.866;4.366;2023-02-28T09:46:24;4.40;90.00
14531;DHT22;7352;50.866;4.366;2023-02-28T09:48:55;4.50;88.80
14531;DHT22;7352;50.866;4.366;2023-02-28T09:51:36;4.60;86.70
14531;DHT22;7352;50.866;4.366;2023-02-28T09:54:05;4.50;86.80
14531;DHT22;7352;50.866;4.366;2023-02-28T09:56:36;4.60;86.60
14531;DHT22;7352;50.866;4.366;2023-02-28T09:59:13;4.50;86.20
14531;DHT22;7352;50.866;4.366;2023-02-28T10:01:50;4.50;87.50
14531;DHT22;7352;50.866;4.366;2023-02-28T10:04:36;4.60;86.00
14531;DHT22;7352;50.866;4.366;2023-02-28T10:07:17;4.50;86.30
14531;DHT22;7352;50.866;4.366;2023-02-28T10:09:47;4.30;86.50
14531;DHT22;7352;50.866;4.366;2023-02-28T10:12:19;4.40;85.80
14531;DHT22;7352;50.866;4.366;2023-02-28T10:14:49;4.60;84.70
14531;DHT22;7352;50.866;4.366;2023-02-28T10:17:19;4.60;84.20
14531;DHT22;7352;50.866;4.366;2023-02-28T10:19:56;4.60;84.30
14531;DHT22;7352;50.866;4.366;2023-02-28T10:22:27;4.60;85.20
14531;DHT22;7352;50.866;4.366;2023-02-28T10:24:58;4.70;84.00
14531;DHT22;7352;50.866;4.366;2023-02-28T10:27:30;4.60;82.40
14531;DHT22;7352;50.866;4.366;2023-02-28T10:30:03;4.70;82.60
14531;DHT22;7352;50.866;4.366;2023-02-28T10:32:34;4.70;83.10
14531;DHT22;7352;50.866;4.366;2023-02-28T10:35:14;4.80;80.10
14531;DHT22;7352;50.866;4.366;2023-02-28T10:37:43;4.90;77.10
14531;DHT22;7352;50.866;4.366;2023-02-28T10:40:29;4.90;74.90
14531;DHT22;7352;50.866;4.366;2023-02-28T10:43:01;4.90;74.50
14531;DHT22;7352;50.866;4.366;2023-02-28T10:45:29;4.90;74.30
14531;DHT22;7352;50.866;4.366;2023-02-28T10:47:59;4.90;74.30
14531;DHT22;7352;50.866;4.366;2023-02-28T10:50:33;4.90;73.00
14531;DHT22;7352;50.866;4.366;2023-02-28T10:53:17;4.90;72.60
14531;DHT22;7352;50.866;4.366;2023-02-28T10:56:00;4.90;71.60
14531;DHT22;7352;50.866;4.366;2023-02-28T10:58:31;5.00;72.00
14531;DHT22;7352;50.866;4.366;2023-02-28T11:00:59;5.00;72.10
14531;DHT22;7352;50.866;4.366;2023-02-28T11:03:33;5.10;72.30
14531;DHT22;7352;50.866;4.366;2023-02-28T11:06:08;5.10;72.40
14531;DHT22;7352;50.866;4.366;2023-02-28T11:08:44;5.20;72.20
14531;DHT22;7352;50.866;4.366;2023-02-28T11:11:26;5.40;72.90
14531;DHT22;7352;50.866;4.366;2023-02-28T11:13:57;5.40;73.00
14531;DHT22;7352;50.866;4.366;2023-02-28T11:16:33;5.50;72.80
14531;DHT22;7352;50.866;4.366;2023-02-28T11:19:02;5.50;73.10
14531;DHT22;7352;50.866;4.366;2023-02-28T11:21:36;5.60;72.80
14531;DHT22;7352;50.866;4.366;2023-02-28T11:24:18;5.50;72.80
14531;DHT22;7352;50.866;4.366;2023-02-28T11:26:49;5.40;73.00
14531;DHT22;7352;50.866;4.366;2023-02-28T11:29:20;5.50;72.80
14531;DHT22;7352;50.866;4.366;2023-02-28T11:32:13;5.40;72.80
14531;DHT22;7352;50.866;4.366;2023-02-28T11:34:41;5.30;73.70
14531;DHT22;7352;50.866;4.366;2023-02-28T11:37:16;5.40;73.20
14531;DHT22;7352;50.866;4.366;2023-02-28T11:39:45;5.40;73.90
14531;DHT22;7352;50.866;4.366;2023-02-28T11:42:26;5.50;73.10
14531;DHT22;7352;50.866;4.366;2023-02-28T11:45:08;5.70;72.20
14531;DHT22;7352;50.866;4.366;2023-02-28T11:47:51;5.70;72.20
14531;DHT22;7352;50.866;4.366;2023-02-28T11:50:32;5.80;71.50
14531;DHT22;7352;50.866;4.366;2023-02-28T11:53:17;5.80;71.50
14531;DHT22;7352;50.866;4.366;2023-02-28T11:55:50;5.90;70.40
14531;DHT22;7352;50.866;4.366;2023-02-28T11:58:33;5.80;70.60
14531;DHT22;7352;50.866;4.366;2023-02-28T12:01:22;5.90;71.50
14531;DHT22;7352;50.866;4.366;2023-02-28T12:04:01;5.90;71.60
14531;DHT22;7352;50.866;4.366;2023-02-28T12:06:36;6.10;70.90
14531;DHT22;7352;50.866;4.366;2023-02-28T12:09:20;6.20;70.40
14531;DHT22;7352;50.866;4.366;2023-02-28T12:11:52;6.10;70.20
14531;DHT22;7352;50.866;4.366;2023-02-28T12:14:42;6.10;70.10
14531;DHT22;7352;50.866;4.366;2023-02-28T12:17:29;6.20;71.00
14531;DHT22;7352;50.866;4.366;2023-02-28T12:20:09;6.20;70.60
14531;DHT22;7352;50.866;4.366;2023-02-28T12:22:48;6.30;70.10
14531;DHT22;7352;50.866;4.366;2023-02-28T12:28:28;6.20;69.60
14531;DHT22;7352;50.866;4.366;2023-02-28T12:31:04;6.10;69.30
14531;DHT22;7352;50.866;4.366;2023-02-28T12:33:47;6.20;68.60
14531;DHT22;7352;50.866;4.366;2023-02-28T12:36:28;6.10;69.10
14531;DHT22;7352;50.866;4.366;2023-02-28T12:39:00;6.20;69.00
14531;DHT22;7352;50.866;4.366;2023-02-28T12:41:43;6.30;68.40
14531;DHT22;7352;50.866;4.366;2023-02-28T12:44:18;6.30;68.20
14531;DHT22;7352;50.866;4.366;2023-02-28T12:46:50;6.30;67.70
14531;DHT22;7352;50.866;4.366;2023-02-28T12:49:25;6.40;67.70
14531;DHT22;7352;50.866;4.366;2023-02-28T12:51:57;6.30;67.90
14531;DHT22;7352;50.866;4.366;2023-02-28T12:54:35;6.30;67.80
14531;DHT22;7352;50.866;4.366;2023-02-28T12:57:09;6.20;67.40
14531;DHT22;7352;50.866;4.366;2023-02-28T12:59:48;6.30;68.40
14531;DHT22;7352;50.866;4.366;2023-02-28T13:02:44;6.30;68.20
14531;DHT22;7352;50.866;4.366;2023-02-28T13:05:39;6.40;67.60
14531;DHT22;7352;50.866;4.366;2023-02-28T13:11:24;6.60;65.10
14531;DHT22;7352;50.866;4.366;2023-02-28T13:14:01;6.30;64.30
14531;DHT22;7352;50.866;4.366;2023-02-28T13:16:59;6.30;64.80
14531;DHT22;7352;50.866;4.366;2023-02-28T13:19:28;6.20;64.30
14531;DHT22;7352;50.866;4.366;2023-02-28T13:21:58;6.20;64.20
14531;DHT22;7352;50.866;4.366;2023-02-28T13:24:45;6.20;64.80
14531;DHT22;7352;50.866;4.366;2023-02-28T13:27:38;6.40;64.90
14531;DHT22;7352;50.866;4.366;2023-02-28T13:33:26;6.70;64.40
14531;DHT22;7352;50.866;4.366;2023-02-28T13:36:27;6.70;63.90
14531;DHT22;7352;50.866;4.366;2023-02-28T13:38:57;6.70;64.40
14531;DHT22;7352;50.866;4.366;2023-02-28T13:41:43;6.70;64.40
14531;DHT22;7352;50.866;4.366;2023-02-28T13:44:12;6.80;63.90
14531;DHT22;7352;50.866;4.366;2023-02-28T13:49:41;6.90;62.90
14531;DHT22;7352;50.866;4.366;2023-02-28T13:52:15;6.80;62.40
14531;DHT22;7352;50.866;4.366;2023-02-28T13:54:56;6.90;62.60
14531;DHT22;7352;50.866;4.366;2023-02-28T13:57:37;6.90;62.80
14531;DHT22;7352;50.866;4.366;2023-02-28T14:00:22;6.70;63.20
14531;DHT22;7352;50.866;4.366;2023-02-28T14:03:05;6.60;62.40
14531;DHT22;7352;50.866;4.366;2023-02-28T14:05:36;6.60;63.90
14531;DHT22;7352;50.866;4.366;2023-02-28T14:08:07;6.70;63.70
14531;DHT22;7352;50.866;4.366;2023-02-28T14:10:43;6.80;63.20
14531;DHT22;7352;50.866;4.366;2023-02-28T14:13:17;7.00;62.70
14531;DHT22;7352;50.866;4.366;2023-02-28T14:16:04;7.00;62.80
14531;DHT22;7352;50.866;4.366;2023-02-28T14:18:34;6.90;62.60
14531;DHT22;7352;50.866;4.366;2023-02-28T14:21:14;6.90;62.70
14531;DHT22;7352;50.866;4.366;2023-02-28T14:27:03;7.00;62.80
14531;DHT22;7352;50.866;4.366;2023-02-28T14:33:01;7.20;63.00
14531;DHT22;7352;50.866;4.366;2023-02-28T14:35:54;7.30;63.20
14531;DHT22;7352;50.866;4.366;2023-02-28T14:38:29;7.40;62.00
14531;DHT22;7352;50.866;4.366;2023-02-28T14:41:02;7.50;62.40
14531;DHT22;7352;50.866;4.366;2023-02-28T14:43:29;7.40;61.00
14531;DHT22;7352;50.866;4.366;2023-02-28T14:46:00;7.40;61.30
14531;DHT22;7352;50.866;4.366;2023-02-28T14:48:28;7.40;61.30
14531;DHT22;7352;50.866;4.366;2023-02-28T14:50:58;7.40;63.00
14531;DHT22;7352;50.866;4.366;2023-02-28T14:53:30;7.60;62.20
14531;DHT22;7352;50.866;4.366;2023-02-28T14:56:01;7.60;62.20
14531;DHT22;7352;50.866;4.366;2023-02-28T14:58:30;7.60;61.50
14531;DHT22;7352;50.866;4.366;2023-02-28T15:00:58;7.60;61.80
14531;DHT22;7352;50.866;4.366;2023-02-28T15:03:31;7.70;63.50
14531;DHT22;7352;50.866;4.366;2023-02-28T15:06:00;7.90;61.50
14531;DHT22;7352;50.866;4.366;2023-02-28T15:08:30;7.80;61.70
14531;DHT22;7352;50.866;4.366;2023-02-28T15:11:02;7.80;62.50
14531;DHT22;7352;50.866;4.366;2023-02-28T15:13:36;7.80;62.40
14531;DHT22;7352;50.866;4.366;2023-02-28T15:16:05;8.00;63.10
14531;DHT22;7352;50.866;4.366;2023-02-28T15:18:43;8.20;62.50
14531;DHT22;7352;50.866;4.366;2023-02-28T15:21:12;8.30;62.80
14531;DHT22;7352;50.866;4.366;2023-02-28T15:23:44;8.40;62.20
14531;DHT22;7352;50.866;4.366;2023-02-28T15:26:14;8.60;61.40
14531;DHT22;7352;50.866;4.366;2023-02-28T15:28:42;8.60;61.80
14531;DHT22;7352;50.866;4.366;2023-02-28T15:31:20;8.70;62.10
14531;DHT22;7352;50.866;4.366;2023-02-28T15:33:53;9.00;62.10
14531;DHT22;7352;50.866;4.366;2023-02-28T15:36:23;9.10;61.40
14531;DHT22;7352;50.866;4.366;2023-02-28T15:38:54;9.40;60.30
14531;DHT22;7352;50.866;4.366;2023-02-28T15:41:25;9.50;59.70
14531;DHT22;7352;50.866;4.366;2023-02-28T15:44:15;9.60;59.80
14531;DHT22;7352;50.866;4.366;2023-02-28T15:46:52;9.70;59.00
14531;DHT22;7352;50.866;4.366;2023-02-28T15:49:21;9.60;58.60
14531;DHT22;7352;50.866;4.366;2023-02-28T15:51:51;9.60;59.20
14531;DHT22;7352;50.866;4.366;2023-02-28T15:54:22;9.80;59.20
14531;DHT22;7352;50.866;4.366;2023-02-28T15:56:54;9.90;58.50
14531;DHT22;7352;50.866;4.366;2023-02-28T15:59:25;9.70;58.60
14531;DHT22;7352;50.866;4.366;2023-02-28T16:02:15;9.20;58.90
14531;DHT22;7352;50.866;4.366;2023-02-28T16:04:57;8.60;60.10
14531;DHT22;7352;50.866;4.366;2023-02-28T16:07:25;8.20;61.50
14531;DHT22;7352;50.866;4.366;2023-02-28T16:09:54;7.90;61.90
14531;DHT22;7352;50.866;4.366;2023-02-28T16:12:26;7.90;62.70
14531;DHT22;7352;50.866;4.366;2023-02-28T16:14:55;7.60;62.70
14531;DHT22;7352;50.866;4.366;2023-02-28T16:17:25;7.60;63.20
14531;DHT22;7352;50.866;4.366;2023-02-28T16:19:54;7.50;63.70
14531;DHT22;7352;50.866;4.366;2023-02-28T16:22:21;7.20;64.40
14531;DHT22;7352;50.866;4.366;2023-02-28T16:24:48;7.40;64.40
14531;DHT22;7352;50.866;4.366;2023-02-28T16:27:21;7.60;65.60
14531;DHT22;7352;50.866;4.366;2023-02-28T16:29:49;7.30;64.50
14531;DHT22;7352;50.866;4.366;2023-02-28T16:32:16;7.10;64.90
14531;DHT22;7352;50.866;4.366;2023-02-28T16:34:44;6.80;65.50
14531;DHT22;7352;50.866;4.366;2023-02-28T16:37:16;6.80;66.10
14531;DHT22;7352;50.866;4.366;2023-02-28T16:39:44;6.80;65.10
14531;DHT22;7352;50.866;4.366;2023-02-28T16:42:15;6.80;65.60
14531;DHT22;7352;50.866;4.366;2023-02-28T16:44:44;6.80;65.60
14531;DHT22;7352;50.866;4.366;2023-02-28T16:47:12;6.70;66.10
14531;DHT22;7352;50.866;4.366;2023-02-28T16:49:39;6.60;66.00
14531;DHT22;7352;50.866;4.366;2023-02-28T16:52:11;6.40;66.50
14531;DHT22;7352;50.866;4.366;2023-02-28T16:54:38;6.50;67.00
14531;DHT22;7352;50.866;4.366;2023-02-28T16:57:06;6.50;67.80
14531;DHT22;7352;50.866;4.366;2023-02-28T16:59:35;6.50;68.20
14531;DHT22;7352;50.866;4.366;2023-02-28T17:02:08;6.60;68.10